createdAt,value
2022-11-16T00:01:54.158Z,98.00
2022-11-16T00:04:39.877Z,97.60
2022-11-16T00:07:25.201Z,98.10
2022-11-16T00:10:12.373Z,97.60
2022-11-16T00:12:58.629Z,97.80
2022-11-16T00:15:53.730Z,98.20
2022-11-16T00:18:39.957Z,97.90
2022-11-16T00:21:27.770Z,98.00
2022-11-16T00:24:16.419Z,98.30
2022-11-16T00:27:02.840Z,97.90
2022-11-16T00:29:48.147Z,97.90
2022-11-16T00:32:34.271Z,98.30
2022-11-16T00:35:20.446Z,98.00
2022-11-16T00:38:06.897Z,98.10
2022-11-16T00:40:52.270Z,98.00
2022-11-16T00:43:38.865Z,98.10
2022-11-16T00:46:24.969Z,98.20
2022-11-16T00:49:10.922Z,98.20
2022-11-16T00:51:56.971Z,98.10
2022-11-16T00:54:43.071Z,97.90
2022-11-16T00:57:28.633Z,97.90
2022-11-16T01:00:14.545Z,97.80
2022-11-16T01:02:59.925Z,97.80
2022-11-16T01:05:45.317Z,97.90
2022-11-16T01:08:32.519Z,97.90
2022-11-16T01:11:37.371Z,98.00
2022-11-16T01:14:22.743Z,97.90
2022-11-16T01:17:08.465Z,97.80
2022-11-16T01:19:54.018Z,97.40
2022-11-16T01:22:40.249Z,97.40
2022-11-16T01:25:25.532Z,97.70
2022-11-16T01:28:10.958Z,98.00
2022-11-16T01:30:56.675Z,98.00
2022-11-16T01:33:42.063Z,98.30
2022-11-16T01:36:27.488Z,98.30
2022-11-16T01:39:14.042Z,98.40
2022-11-16T01:41:59.087Z,98.60
2022-11-16T01:44:44.572Z,98.60
2022-11-16T01:47:31.028Z,98.60
2022-11-16T01:50:18.178Z,98.60
2022-11-16T01:53:06.032Z,98.40
2022-11-16T01:55:52.083Z,98.40
2022-11-16T01:58:38.219Z,98.50
2022-11-16T02:01:24.817Z,98.50
2022-11-16T02:04:14.588Z,98.50
2022-11-16T02:07:31.136Z,98.50
2022-11-16T02:10:35.734Z,98.60
2022-11-16T02:13:55.856Z,98.60
2022-11-16T02:17:05.345Z,98.60
2022-11-16T02:20:09.486Z,98.70
2022-11-16T02:23:22.198Z,98.70
2022-11-16T02:26:19.082Z,98.70
2022-11-16T02:29:34.624Z,98.60
2022-11-16T02:32:37.772Z,98.80
2022-11-16T02:35:43.834Z,98.50
2022-11-16T02:38:33.943Z,98.70
2022-11-16T02:41:22.665Z,98.60
2022-11-16T02:44:36.969Z,98.80
2022-11-16T02:47:29.035Z,98.80
2022-11-16T02:50:18.830Z,98.80
2022-11-16T02:53:04.356Z,98.90
2022-11-16T02:55:49.601Z,98.80
2022-11-16T02:58:35.360Z,98.90
2022-11-16T03:01:44.050Z,98.90
2022-11-16T03:04:37.468Z,98.80
2022-11-16T03:07:28.318Z,98.80
2022-11-16T03:10:36.461Z,98.80
2022-11-16T03:13:24.579Z,98.80
2022-11-16T03:16:40.482Z,98.90
2022-11-16T03:19:44.000Z,98.90
2022-11-16T03:22:50.416Z,98.80
2022-11-16T03:25:52.568Z,99.00
2022-11-16T03:29:03.107Z,99.00
2022-11-16T03:31:54.456Z,99.00
2022-11-16T03:34:45.094Z,99.30
2022-11-16T03:37:31.962Z,99.40
2022-11-16T03:40:19.192Z,99.50
2022-11-16T03:43:06.562Z,99.50
2022-11-16T03:45:52.433Z,99.70
2022-11-16T03:48:39.903Z,99.60
2022-11-16T03:51:25.849Z,99.70
2022-11-16T03:54:11.214Z,99.80
2022-11-16T03:56:56.522Z,99.90
2022-11-16T03:59:43.234Z,99.80
2022-11-16T04:02:28.442Z,99.90
2022-11-16T04:05:32.342Z,99.90
2022-11-16T04:08:36.854Z,99.90
2022-11-16T04:11:41.705Z,99.90
2022-11-16T04:14:47.106Z,99.90
2022-11-16T04:17:50.881Z,99.90
2022-11-16T04:20:54.831Z,99.90
2022-11-16T04:23:58.990Z,99.90
2022-11-16T04:27:06.563Z,99.90
2022-11-16T04:29:53.092Z,99.90
2022-11-16T04:32:56.776Z,99.90
2022-11-16T04:36:00.474Z,99.90
2022-11-16T04:38:45.871Z,99.90
2022-11-16T04:42:10.260Z,99.90
2022-11-16T04:45:14.168Z,99.90
2022-11-16T04:47:59.398Z,99.90
2022-11-16T04:50:45.850Z,99.90
2022-11-16T04:53:31.276Z,99.90
2022-11-16T04:56:16.774Z,99.90
2022-11-16T04:59:02.033Z,99.90
2022-11-16T05:02:05.940Z,99.90
2022-11-16T05:04:51.446Z,99.90
2022-11-16T05:07:37.036Z,99.90
2022-11-16T05:10:22.341Z,99.90
2022-11-16T05:13:07.829Z,99.90
2022-11-16T05:15:53.078Z,99.90
2022-11-16T05:18:38.343Z,99.90
2022-11-16T05:21:23.713Z,99.90
2022-11-16T05:24:27.655Z,99.90
2022-11-16T05:27:15.380Z,99.90
2022-11-16T05:30:01.172Z,99.90
2022-11-16T05:32:46.266Z,99.90
2022-11-16T05:35:31.729Z,99.90
2022-11-16T05:38:17.734Z,99.90
2022-11-16T05:41:03.072Z,99.90
2022-11-16T05:43:48.453Z,99.90
2022-11-16T05:46:34.089Z,99.90
2022-11-16T05:49:19.416Z,99.90
2022-11-16T05:52:04.674Z,99.90
2022-11-16T05:54:50.112Z,99.90
2022-11-16T05:57:35.689Z,99.90
2022-11-16T06:00:21.230Z,99.90
2022-11-16T06:03:06.687Z,99.90
2022-11-16T06:05:55.561Z,99.90
2022-11-16T06:08:40.861Z,99.90
2022-11-16T06:11:30.164Z,99.90
2022-11-16T06:14:17.960Z,99.90
2022-11-16T06:17:03.246Z,99.90
2022-11-16T06:19:48.575Z,99.90
2022-11-16T06:22:33.988Z,99.90
2022-11-16T06:25:19.374Z,99.90
2022-11-16T06:28:07.955Z,99.90
2022-11-16T06:30:53.592Z,99.90
2022-11-16T06:33:38.838Z,99.90
2022-11-16T06:36:24.337Z,99.90
2022-11-16T06:39:11.304Z,99.90
2022-11-16T06:41:56.671Z,99.90
2022-11-16T06:44:42.168Z,99.90
2022-11-16T06:47:27.527Z,99.90
2022-11-16T06:50:12.944Z,99.90
2022-11-16T06:53:00.776Z,99.90
2022-11-16T06:55:46.243Z,99.90
2022-11-16T06:58:32.584Z,99.90
2022-11-16T07:01:18.414Z,99.90
2022-11-16T07:04:03.727Z,99.90
2022-11-16T07:06:49.161Z,99.90
2022-11-16T07:09:34.471Z,99.90
2022-11-16T07:12:19.952Z,99.90
2022-11-16T07:15:06.015Z,99.90
2022-11-16T07:17:51.695Z,99.90
2022-11-16T07:20:37.901Z,99.90
2022-11-16T07:23:23.070Z,99.90
2022-11-16T07:26:09.847Z,99.90
2022-11-16T07:28:54.973Z,99.90
2022-11-16T07:31:40.337Z,99.90
2022-11-16T07:34:26.680Z,99.90
2022-11-16T07:37:11.748Z,99.90
2022-11-16T07:39:57.246Z,99.90
2022-11-16T07:42:43.589Z,99.90
2022-11-16T07:45:29.365Z,99.90
2022-11-16T07:48:14.539Z,99.90
2022-11-16T07:51:05.108Z,99.90
2022-11-16T07:53:55.642Z,99.90
2022-11-16T07:56:41.959Z,99.90
2022-11-16T07:59:28.332Z,99.90
2022-11-16T08:02:13.772Z,99.90
2022-11-16T08:04:59.146Z,99.90
2022-11-16T08:07:44.502Z,99.90
2022-11-16T08:10:30.998Z,99.90
2022-11-16T08:13:16.415Z,99.90
2022-11-16T08:16:09.258Z,99.90
2022-11-16T08:18:54.368Z,99.90
2022-11-16T08:21:39.863Z,99.90
2022-11-16T08:24:25.384Z,99.90
2022-11-16T08:27:10.931Z,99.90
2022-11-16T08:29:56.151Z,99.90
2022-11-16T08:32:42.427Z,99.90
2022-11-16T08:35:27.766Z,99.90
2022-11-16T08:38:13.218Z,99.90
2022-11-16T08:40:58.724Z,99.90
2022-11-16T08:43:46.456Z,99.90
2022-11-16T08:46:31.577Z,99.90
2022-11-16T08:49:17.491Z,99.90
2022-11-16T08:52:02.975Z,99.90
2022-11-16T08:54:48.396Z,99.90
2022-11-16T08:57:33.880Z,99.90
2022-11-16T09:00:19.284Z,99.90
2022-11-16T09:03:04.674Z,99.90
2022-11-16T09:05:50.029Z,99.90
2022-11-16T09:08:37.567Z,99.90
2022-11-16T09:11:24.566Z,99.90
2022-11-16T09:14:10.026Z,99.90
2022-11-16T09:16:55.364Z,99.90
2022-11-16T09:19:40.874Z,99.90
2022-11-16T09:22:26.396Z,99.90
2022-11-16T09:25:11.895Z,99.90
2022-11-16T09:27:57.241Z,99.90
2022-11-16T09:30:48.031Z,99.90
2022-11-16T09:33:34.632Z,99.90
2022-11-16T09:36:21.307Z,99.90
2022-11-16T09:42:39.454Z,99.90
2022-11-16T09:46:06.433Z,99.90
2022-11-16T09:48:52.604Z,99.90
2022-11-16T09:51:38.780Z,99.90
2022-11-16T09:54:30.483Z,99.90
2022-11-16T09:57:21.285Z,99.90
2022-11-16T10:00:14.349Z,99.90
2022-11-16T10:03:06.890Z,99.90
2022-11-16T10:06:03.263Z,99.90
2022-11-16T10:08:51.937Z,99.90
2022-11-16T10:11:40.381Z,99.90
2022-11-16T10:14:53.760Z,99.90
2022-11-16T10:18:03.607Z,99.90
2022-11-16T10:21:28.184Z,99.90
2022-11-16T10:24:35.823Z,99.90
2022-11-16T10:27:42.606Z,99.90
2022-11-16T10:30:27.974Z,99.90
2022-11-16T10:33:19.489Z,99.90
2022-11-16T10:36:12.876Z,99.90
2022-11-16T10:39:01.074Z,99.90
2022-11-16T10:41:53.037Z,99.90
2022-11-16T10:44:45.356Z,99.90
2022-11-16T10:47:46.962Z,99.90
2022-11-16T10:50:38.031Z,99.90
2022-11-16T10:53:37.052Z,99.90
2022-11-16T10:56:23.931Z,99.90
2022-11-16T10:59:11.332Z,99.90
2022-11-16T11:02:01.290Z,99.90
2022-11-16T11:05:20.309Z,99.90
2022-11-16T11:08:10.027Z,99.90
2022-11-16T11:11:24.161Z,99.90
2022-11-16T11:14:15.690Z,99.90
2022-11-16T11:17:12.190Z,99.90
2022-11-16T11:20:23.095Z,99.90
2022-11-16T11:23:15.884Z,99.90
2022-11-16T11:26:01.282Z,99.90
2022-11-16T11:28:49.311Z,99.90
2022-11-16T11:31:48.458Z,99.90
2022-11-16T11:34:41.566Z,99.90
2022-11-16T11:37:37.150Z,99.90
2022-11-16T11:40:30.754Z,99.90
2022-11-16T11:43:24.203Z,99.90
2022-11-16T11:46:16.306Z,99.90
2022-11-16T11:49:12.365Z,99.90
2022-11-16T11:52:07.025Z,99.90
2022-11-16T11:54:54.393Z,99.90
2022-11-16T11:57:43.825Z,99.90
2022-11-16T12:00:40.317Z,99.90
2022-11-16T12:03:46.009Z,99.90
2022-11-16T12:06:44.279Z,99.90
2022-11-16T12:10:04.140Z,99.90
2022-11-16T12:12:58.288Z,99.90
2022-11-16T12:16:03.713Z,99.90
2022-11-16T12:19:16.570Z,99.90
2022-11-16T12:22:36.687Z,99.90
2022-11-16T12:25:54.647Z,99.90
2022-11-16T12:28:51.233Z,99.90
2022-11-16T12:31:39.490Z,99.90
2022-11-16T12:34:52.368Z,99.90
2022-11-16T12:37:49.326Z,99.90
2022-11-16T12:41:28.872Z,99.90
2022-11-16T12:44:31.596Z,99.90
2022-11-16T12:47:25.435Z,99.90
2022-11-16T12:50:29.609Z,99.90
2022-11-16T12:53:27.630Z,99.90
2022-11-16T12:56:25.470Z,99.90
2022-11-16T12:59:10.549Z,99.90
2022-11-16T13:02:16.933Z,99.90
2022-11-16T13:05:17.172Z,99.90
2022-11-16T13:08:13.180Z,99.90
2022-11-16T13:11:29.032Z,99.90
2022-11-16T13:14:19.333Z,99.90
2022-11-16T13:17:06.355Z,99.90
2022-11-16T13:20:25.378Z,99.90
2022-11-16T13:23:15.605Z,99.90
2022-11-16T13:26:25.502Z,99.90
2022-11-16T13:29:30.640Z,99.90
2022-11-16T13:32:55.199Z,99.90
2022-11-16T13:35:40.677Z,99.90
2022-11-16T13:38:54.788Z,99.90
2022-11-16T13:41:52.070Z,99.90
2022-11-16T13:44:37.421Z,99.90
2022-11-16T13:47:26.729Z,99.90
2022-11-16T13:50:19.529Z,99.90
2022-11-16T13:56:25.585Z,99.90
2022-11-16T13:59:23.034Z,99.90
2022-11-16T14:02:33.513Z,99.90
2022-11-16T14:05:33.879Z,99.90
2022-11-16T14:08:48.296Z,99.90
2022-11-16T14:11:43.768Z,99.90
2022-11-16T14:15:03.940Z,99.90
2022-11-16T14:17:49.682Z,99.90
2022-11-16T14:20:38.316Z,99.90
2022-11-16T14:23:36.417Z,99.90
2022-11-16T14:26:37.225Z,99.90
2022-11-16T14:29:27.916Z,99.90
2022-11-16T14:32:25.622Z,99.90
2022-11-16T14:35:24.121Z,99.90
2022-11-16T14:38:30.945Z,99.90
2022-11-16T14:41:22.672Z,99.90
2022-11-16T14:44:10.579Z,99.90
2022-11-16T14:46:56.776Z,99.90
2022-11-16T14:49:45.269Z,99.90
2022-11-16T14:52:40.011Z,99.90
2022-11-16T14:55:26.697Z,99.90
2022-11-16T14:58:23.251Z,99.90
2022-11-16T15:01:14.626Z,99.90
2022-11-16T15:04:06.758Z,99.90
2022-11-16T15:06:58.863Z,99.90
2022-11-16T15:09:53.476Z,99.90
2022-11-16T15:12:42.939Z,99.90
2022-11-16T15:15:30.466Z,99.90
2022-11-16T15:18:20.806Z,99.90
2022-11-16T15:21:06.421Z,99.90
2022-11-16T15:24:15.639Z,99.90
2022-11-16T15:27:12.181Z,99.90
2022-11-16T15:30:01.091Z,99.90
2022-11-16T15:32:48.540Z,99.90
2022-11-16T15:35:36.104Z,99.90
2022-11-16T15:38:29.004Z,99.90
2022-11-16T15:41:17.616Z,99.90
2022-11-16T15:44:15.154Z,99.90
2022-11-16T15:47:03.719Z,99.90
2022-11-16T15:49:52.799Z,99.90
2022-11-16T15:52:50.330Z,99.90
2022-11-16T15:55:39.367Z,99.90
2022-11-16T15:58:28.424Z,99.90
2022-11-16T16:01:15.279Z,99.90
2022-11-16T16:04:06.246Z,99.90
2022-11-16T16:06:54.101Z,99.90
2022-11-16T16:09:40.670Z,99.90
2022-11-16T16:12:26.878Z,99.90
2022-11-16T16:15:23.743Z,99.90
2022-11-16T16:18:39.042Z,99.90
2022-11-16T16:21:26.086Z,99.90
2022-11-16T16:24:37.590Z,99.90
2022-11-16T16:27:25.689Z,99.90
2022-11-16T16:30:14.543Z,99.90
2022-11-16T16:33:00.274Z,99.90
2022-11-16T16:35:49.553Z,99.90
2022-11-16T16:38:34.572Z,99.90
2022-11-16T16:41:24.272Z,99.90
2022-11-16T16:44:16.333Z,99.90
2022-11-16T16:47:01.696Z,99.90
2022-11-16T16:49:47.804Z,99.90
2022-11-16T16:52:33.188Z,99.90
2022-11-16T16:55:18.565Z,99.90
2022-11-16T16:58:05.278Z,99.90
2022-11-16T17:00:50.605Z,99.90
2022-11-16T17:03:36.091Z,99.90
2022-11-16T17:06:21.705Z,99.90
2022-11-16T17:09:07.125Z,99.90
2022-11-16T17:11:52.608Z,99.90
2022-11-16T17:14:37.915Z,99.90
2022-11-16T17:17:26.537Z,99.90
2022-11-16T17:20:12.308Z,99.90
2022-11-16T17:22:58.100Z,99.90
2022-11-16T17:25:43.030Z,99.90
2022-11-16T17:28:28.645Z,99.90
2022-11-16T17:31:14.866Z,99.90
2022-11-16T17:34:00.030Z,99.90
2022-11-16T17:36:45.435Z,99.90
2022-11-16T17:39:30.814Z,99.90
2022-11-16T17:42:16.305Z,99.90
2022-11-16T17:45:03.042Z,99.90
2022-11-16T17:47:48.256Z,99.90
2022-11-16T17:50:33.829Z,99.90
2022-11-16T17:53:19.075Z,99.90
2022-11-16T17:56:05.181Z,99.90
2022-11-16T17:58:52.103Z,99.90
2022-11-16T18:01:37.493Z,99.90
2022-11-16T18:04:23.537Z,99.90
2022-11-16T18:07:08.977Z,99.90
2022-11-16T18:09:54.941Z,99.90
2022-11-16T18:12:40.374Z,99.90
2022-11-16T18:15:29.289Z,99.90
2022-11-16T18:18:16.276Z,99.90
2022-11-16T18:21:02.119Z,99.90
2022-11-16T18:23:47.130Z,99.90
2022-11-16T18:26:32.466Z,99.90
2022-11-16T18:29:19.196Z,99.90
2022-11-16T18:32:04.528Z,99.90
2022-11-16T18:34:49.989Z,99.90
2022-11-16T18:37:35.765Z,99.90
2022-11-16T18:40:21.324Z,99.90
2022-11-16T18:43:12.958Z,99.90
2022-11-16T18:45:58.018Z,99.90
2022-11-16T18:48:43.440Z,99.90
2022-11-16T18:51:29.502Z,99.90
2022-11-16T18:54:15.023Z,99.90
2022-11-16T18:57:00.424Z,99.90
2022-11-16T18:59:45.826Z,99.90
2022-11-16T19:02:31.207Z,99.90
2022-11-16T19:05:16.712Z,99.90
2022-11-16T19:08:02.222Z,99.90
2022-11-16T19:10:47.522Z,99.90
2022-11-16T19:13:34.112Z,99.90
2022-11-16T19:16:19.730Z,99.90
2022-11-16T19:19:05.293Z,99.90
2022-11-16T19:21:51.859Z,99.90
2022-11-16T19:24:36.884Z,99.90
2022-11-16T19:27:22.211Z,99.90
2022-11-16T19:30:08.317Z,99.90
2022-11-16T19:32:57.976Z,99.90
2022-11-16T19:35:43.139Z,99.90
2022-11-16T19:38:29.431Z,99.90
2022-11-16T19:41:16.886Z,99.90
2022-11-16T19:44:02.349Z,99.90
2022-11-16T19:46:47.851Z,99.90
2022-11-16T19:49:33.308Z,99.90
2022-11-16T19:52:19.271Z,99.90
2022-11-16T19:55:04.985Z,99.90
2022-11-16T19:57:49.916Z,99.90
2022-11-16T20:00:35.504Z,99.90
2022-11-16T20:03:20.865Z,99.90
2022-11-16T20:06:11.967Z,99.90
2022-11-16T20:09:00.752Z,99.90
2022-11-16T20:11:46.357Z,99.90
2022-11-16T20:14:31.786Z,99.90
2022-11-16T20:17:17.111Z,99.90
2022-11-16T20:20:02.520Z,99.90
2022-11-16T20:22:50.619Z,99.90
2022-11-16T20:25:41.081Z,99.90
2022-11-16T20:28:26.417Z,99.90
2022-11-16T20:31:15.343Z,99.90
2022-11-16T20:34:04.203Z,99.90
2022-11-16T20:36:50.836Z,99.90
2022-11-16T20:39:36.069Z,99.90
2022-11-16T20:42:21.228Z,99.90
2022-11-16T20:45:07.622Z,99.90
2022-11-16T20:47:52.859Z,99.90
2022-11-16T20:50:38.158Z,99.90
2022-11-16T20:53:23.663Z,99.90
2022-11-16T20:56:10.442Z,99.90
2022-11-16T20:58:56.863Z,99.90
2022-11-16T21:01:47.544Z,99.90
2022-11-16T21:04:33.070Z,99.90
2022-11-16T21:07:19.440Z,99.90
2022-11-16T21:10:20.599Z,99.90
2022-11-16T21:13:25.262Z,99.90
2022-11-16T21:16:12.463Z,99.90
2022-11-16T21:18:57.647Z,99.90
2022-11-16T21:21:42.898Z,99.90
2022-11-16T21:24:29.292Z,99.90
2022-11-16T21:27:17.641Z,99.90
2022-11-16T21:30:03.818Z,99.90
2022-11-16T21:32:49.107Z,99.90
2022-11-16T21:35:34.484Z,99.90
2022-11-16T21:38:20.542Z,99.90
2022-11-16T21:41:06.727Z,99.90
2022-11-16T21:43:52.236Z,99.90
2022-11-16T21:46:37.324Z,99.90
2022-11-16T21:49:22.661Z,99.90
2022-11-16T21:52:07.925Z,99.90
2022-11-16T21:54:59.204Z,99.90
2022-11-16T21:57:44.638Z,99.90
2022-11-16T22:00:30.286Z,99.90
2022-11-16T22:03:15.760Z,99.90
2022-11-16T22:06:21.396Z,99.90
2022-11-16T22:09:06.855Z,99.90
2022-11-16T22:11:52.095Z,99.90
2022-11-16T22:14:37.493Z,99.90
2022-11-16T22:17:22.890Z,99.90
2022-11-16T22:20:08.921Z,99.90
2022-11-16T22:22:54.376Z,99.90
2022-11-16T22:25:39.809Z,99.90
2022-11-16T22:28:25.258Z,99.90
2022-11-16T22:31:14.904Z,99.90
2022-11-16T22:34:00.389Z,99.90
2022-11-16T22:36:46.072Z,99.90
2022-11-16T22:39:31.538Z,99.90
2022-11-16T22:42:17.002Z,99.90
2022-11-16T22:45:02.301Z,99.90
2022-11-16T22:47:49.699Z,99.90
2022-11-16T22:50:38.592Z,99.90
2022-11-16T22:53:24.046Z,99.90
2022-11-16T22:56:10.085Z,99.90
2022-11-16T22:58:55.960Z,99.90
2022-11-16T23:01:41.050Z,99.90
2022-11-16T23:04:26.669Z,99.90
2022-11-16T23:07:12.205Z,99.90
2022-11-16T23:09:57.576Z,99.90
2022-11-16T23:13:01.377Z,99.90
2022-11-16T23:15:49.568Z,99.90
2022-11-16T23:18:34.618Z,99.90
2022-11-16T23:21:38.310Z,99.90
2022-11-16T23:24:42.463Z,99.90
2022-11-16T23:27:39.324Z,99.90
2022-11-16T23:30:25.741Z,99.90
2022-11-16T23:33:10.990Z,99.90
2022-11-16T23:35:56.134Z,99.90
2022-11-16T23:38:41.641Z,99.90
2022-11-16T23:41:45.718Z,99.90
2022-11-16T23:44:31.100Z,99.90
2022-11-16T23:47:16.546Z,99.90
2022-11-16T23:50:01.878Z,99.90
2022-11-16T23:52:47.373Z,99.90
2022-11-16T23:55:33.705Z,99.90
2022-11-16T23:58:18.765Z,99.90
